Time;durP1;ratioP1;P1;durP2;ratioP2;P2;SDS_P1;SDS_P2;PMS_P1;PMS_P2;Temp;Humidity;BMP_temperature;BMP_pressure;BME280_temperature;BME280_humidity;BME280_pressure;Samples;Min_cycle;Max_cycle;Signal;HPM_P1;HPM_P2
2024/01/19 00:00:09;;;;;;;0.30;0.10;;;;;;;-2.78;57.27;100887.09;4953042;28;20042;-71
2024/01/19 00:02:35;;;;;;;0.38;0.00;;;;;;;-3.25;60.18;100897.38;4958865;28;20042;-71
2024/01/19 00:05:01;;;;;;;0.10;0.00;;;;;;;-3.38;62.27;100887.81;4957824;28;20051;-73
2024/01/19 00:07:29;;;;;;;1.42;0.15;;;;;;;-3.48;63.39;100897.00;4956143;28;20029;-73
2024/01/19 00:09:55;;;;;;;1.77;0.10;;;;;;;-2.92;62.69;100904.78;4962532;28;20039;-68
2024/01/19 00:12:20;;;;;;;1.02;0.00;;;;;;;-2.78;62.32;100901.56;4953404;28;20624;-66
2024/01/19 00:14:46;;;;;;;1.65;0.00;;;;;;;-3.00;62.66;100915.75;4964828;28;20039;-65
2024/01/19 00:17:11;;;;;;;0.00;0.00;;;;;;;-3.16;63.73;100912.03;4983359;28;20584;-65
2024/01/19 00:19:36;;;;;;;2.58;0.03;;;;;;;-2.65;62.41;100895.81;4956337;28;20272;-64
2024/01/19 00:22:02;;;;;;;0.00;0.00;;;;;;;-2.84;62.93;100892.97;4959252;28;20049;-64
2024/01/19 00:24:28;;;;;;;1.05;0.28;;;;;;;-2.88;62.94;100888.63;4953632;28;20062;-65
2024/01/19 00:26:54;;;;;;;0.00;0.00;;;;;;;-3.19;63.40;100879.59;4971779;28;20113;-65
2024/01/19 00:29:20;;;;;;;0.10;0.00;;;;;;;-2.98;62.79;100878.22;4946985;28;20234;-65
2024/01/19 00:31:47;;;;;;;0.20;0.00;;;;;;;-3.29;63.23;100868.38;4958705;28;20272;-65
2024/01/19 00:34:14;;;;;;;0.25;0.00;;;;;;;-3.15;63.05;100860.09;4956345;28;20061;-64
2024/01/19 00:36:40;;;;;;;3.88;0.30;;;;;;;-3.58;64.73;100864.47;4956316;28;20047;-66
2024/01/19 00:39:05;;;;;;;0.10;0.00;;;;;;;-3.47;63.99;100853.59;4959319;28;20121;-64
2024/01/19 00:41:31;;;;;;;0.20;0.08;;;;;;;-3.51;63.99;100862.03;4957141;28;21626;-66
2024/01/19 00:43:57;;;;;;;4.50;0.20;;;;;;;-3.28;64.00;100864.13;4978160;28;20641;-64
2024/01/19 00:46:23;;;;;;;3.13;0.10;;;;;;;-3.42;63.71;100863.03;4953324;28;20034;-65
2024/01/19 00:48:49;;;;;;;1.02;0.08;;;;;;;-3.51;63.97;100869.69;4955807;28;20092;-67
2024/01/19 00:51:15;;;;;;;0.15;0.00;;;;;;;-3.49;63.18;100864.63;4956445;28;20493;-65
2024/01/19 00:53:40;;;;;;;1.55;0.00;;;;;;;-3.30;62.70;100865.78;4961868;28;20529;-66
2024/01/19 00:56:08;;;;;;;2.35;0.00;;;;;;;-3.13;61.27;100864.38;4954839;28;20073;-65
2024/01/19 00:58:34;;;;;;;3.83;0.20;;;;;;;-3.34;62.37;100864.00;4957758;28;20645;-64
2024/01/19 01:01:00;;;;;;;3.35;0.15;;;;;;;-3.49;62.63;100880.81;4958807;28;20038;-64
2024/01/19 01:03:27;;;;;;;0.60;0.00;;;;;;;-3.56;62.67;100870.44;4984890;28;20045;-64
2024/01/19 01:05:57;;;;;;;0.68;0.08;;;;;;;-3.41;62.40;100892.84;4991596;28;20038;-64
2024/01/19 01:08:27;;;;;;;2.78;0.47;;;;;;;-3.53;62.69;100909.69;4952675;28;20106;-66
2024/01/19 01:10:54;;;;;;;1.05;0.00;;;;;;;-3.03;61.33;100915.66;4960213;28;20125;-64
2024/01/19 01:13:20;;;;;;;0.85;0.10;;;;;;;-3.28;63.00;100915.25;4954839;28;20121;-64
2024/01/19 01:15:45;;;;;;;1.35;0.00;;;;;;;-3.21;62.84;100917.06;4958903;28;20444;-67
2024/01/19 01:18:11;;;;;;;1.88;0.00;;;;;;;-2.79;62.03;100926.31;4889498;28;20276;-66
2024/01/19 01:20:37;;;;;;;1.50;0.10;;;;;;;-2.83;61.99;100924.53;4915748;28;20258;-71
2024/01/19 01:23:03;;;;;;;0.70;0.00;;;;;;;-2.73;61.82;100923.84;4922275;28;20125;-69
2024/01/19 01:25:30;;;;;;;4.78;0.08;;;;;;;-3.20;62.83;100916.25;4910394;28;20046;-71
2024/01/19 01:27:56;;;;;;;3.20;0.10;;;;;;;-3.13;62.94;100905.28;4923889;28;20030;-72
2024/01/19 01:30:22;;;;;;;5.68;0.28;;;;;;;-3.15;63.46;100898.44;4935860;28;20981;-70
2024/01/19 01:32:47;;;;;;;0.88;0.00;;;;;;;-3.29;63.78;100900.75;4947552;28;20130;-70
2024/01/19 01:35:13;;;;;;;4.53;0.10;;;;;;;-3.54;64.26;100897.75;4945103;28;20405;-70
2024/01/19 01:37:39;;;;;;;4.03;0.20;;;;;;;-3.35;64.29;100900.63;4882730;28;20038;-71
2024/01/19 01:40:06;;;;;;;4.57;0.20;;;;;;;-2.95;62.76;100896.22;4896257;28;20250;-71
2024/01/19 01:42:32;;;;;;;1.73;0.50;;;;;;;-3.03;63.04;100890.94;4873458;28;20319;-69
2024/01/19 01:45:00;;;;;;;0.30;0.00;;;;;;;-3.05;62.50;100883.28;4874291;28;20648;-69
2024/01/19 01:47:26;;;;;;;2.28;0.00;;;;;;;-3.20;62.69;100902.63;4875328;28;20247;-70
2024/01/19 01:49:54;;;;;;;1.77;0.10;;;;;;;-3.26;62.71;100909.31;4936960;28;20039;-69
2024/01/19 01:52:20;;;;;;;3.97;0.10;;;;;;;-3.61;63.31;100916.34;4970378;28;20513;-69
2024/01/19 01:54:46;;;;;;;5.10;0.10;;;;;;;-3.48;63.20;100928.50;4960027;28;20501;-68
2024/01/19 01:57:13;;;;;;;1.50;0.10;;;;;;;-3.71;62.93;100940.84;4956538;28;20527;-69
2024/01/19 01:59:38;;;;;;;0.38;0.05;;;;;;;-3.21;61.81;100940.06;4957888;28;20046;-68
2024/01/19 02:02:04;;;;;;;0.50;0.28;;;;;;;-2.81;60.46;100937.34;4958822;28;20034;-69
2024/01/19 02:04:29;;;;;;;1.98;0.13;;;;;;;-3.21;61.13;100944.34;4953563;28;20042;-68
2024/01/19 02:06:55;;;;;;;1.13;0.10;;;;;;;-3.01;60.84;100924.22;4966413;28;20564;-68
2024/01/19 02:09:21;;;;;;;0.68;0.20;;;;;;;-3.09;60.61;100917.28;4954362;28;20054;-70
2024/01/19 02:11:47;;;;;;;4.80;0.10;;;;;;;-2.94;60.82;100926.03;4959367;28;20046;-69
2024/01/19 02:14:12;;;;;;;1.42;0.00;;;;;;;-3.03;60.81;100925.91;4958496;28;20476;-69
2024/01/19 02:16:38;;;;;;;0.15;0.00;;;;;;;-2.83;60.88;100934.75;4955321;28;20096;-68
2024/01/19 02:19:03;;;;;;;0.28;0.08;;;;;;;-2.69;60.60;100945.25;4957883;28;20034;-68
2024/01/19 02:21:29;;;;;;;0.15;0.00;;;;;;;-2.95;61.71;100940.53;4954586;28;20042;-68
2024/01/19 02:24:01;;;;;;;3.40;0.10;;;;;;;-3.07;62.14;100936.09;4960107;28;20030;-68
2024/01/19 02:26:31;;;;;;;2.97;0.30;;;;;;;-3.08;63.04;100947.13;4955145;28;20026;-68
2024/01/19 02:28:57;;;;;;;1.20;0.00;;;;;;;-3.16;62.71;100941.03;4958212;28;20039;-67
2024/01/19 02:31:23;;;;;;;1.65;0.10;;;;;;;-2.80;61.76;100950.19;4955585;28;20069;-68
2024/01/19 02:33:48;;;;;;;4.90;0.22;;;;;;;-3.50;62.61;100954.88;4972915;28;20045;-67
2024/01/19 02:36:14;;;;;;;2.42;0.15;;;;;;;-3.47;63.58;100939.63;4958605;28;20037;-70
2024/01/19 02:38:40;;;;;;;4.15;0.38;;;;;;;-3.34;62.64;100946.69;4956230;28;20116;-68
2024/01/19 02:41:06;;;;;;;5.78;0.10;;;;;;;-3.30;62.46;100948.44;4985856;28;20042;-67
2024/01/19 02:43:31;;;;;;;1.10;0.00;;;;;;;-3.67;63.14;100954.56;4964047;28;21577;-67
2024/01/19 02:45:57;;;;;;;5.13;0.30;;;;;;;-3.11;61.39;100959.88;4960188;28;20053;-68
2024/01/19 02:48:22;;;;;;;9.73;0.43;;;;;;;-3.49;62.00;100957.47;4952934;28;20038;-68
2024/01/19 02:50:48;;;;;;;4.10;0.20;;;;;;;-3.33;61.50;100962.88;4957063;28;20128;-68
2024/01/19 02:53:14;;;;;;;3.65;0.30;;;;;;;-3.65;62.27;100965.69;4958648;28;20037;-70
2024/01/19 02:55:39;;;;;;;5.53;0.03;;;;;;;-3.36;61.45;100956.03;4983639;28;20129;-70
2024/01/19 02:58:05;;;;;;;2.58;0.10;;;;;;;-3.32;60.77;100965.47;4958861;28;20034;-72
2024/01/19 03:00:30;;;;;;;1.42;0.10;;;;;;;-3.20;60.85;100969.09;4953118;28;20108;-73
2024/01/19 03:02:56;;;;;;;1.70;0.10;;;;;;;-3.38;61.38;100987.50;4976833;28;20050;-70
2024/01/19 03:05:21;;;;;;;2.92;0.30;;;;;;;-3.03;60.54;100982.16;4953409;28;20041;-72
2024/01/19 03:07:47;;;;;;;1.55;0.10;;;;;;;-3.12;60.79;100983.69;4957817;28;20038;-72
2024/01/19 03:10:12;;;;;;;2.25;0.30;;;;;;;-3.08;60.34;100984.63;4958555;28;20405;-72
2024/01/19 03:12:37;;;;;;;0.57;0.10;;;;;;;-3.15;60.68;100988.78;4954357;28;20134;-71
2024/01/19 03:15:04;;;;;;;2.83;0.00;;;;;;;-2.91;59.27;100987.50;4958924;28;20054;-71
2024/01/19 03:17:30;;;;;;;1.15;0.10;;;;;;;-3.22;60.00;100986.09;4953550;28;20042;-71
2024/01/19 03:19:56;;;;;;;3.13;0.10;;;;;;;-3.41;60.52;100995.09;4965492;28;20045;-70
2024/01/19 03:22:21;;;;;;;2.00;0.08;;;;;;;-3.45;61.13;100994.19;4954943;28;20075;-69
2024/01/19 03:24:46;;;;;;;4.35;0.32;;;;;;;-3.64;61.60;101003.16;4955453;28;20050;-69
2024/01/19 03:27:13;;;;;;;4.00;0.20;;;;;;;-3.17;60.99;101016.00;4971060;28;20126;-69
2024/01/19 03:29:38;;;;;;;1.00;0.75;;;;;;;-3.20;61.00;101015.09;4968561;28;21125;-67
2024/01/19 03:32:04;;;;;;;2.47;0.20;;;;;;;-3.02;61.13;100994.13;4957166;28;20038;-67
2024/01/19 03:34:29;;;;;;;6.65;0.20;;;;;;;-2.93;60.35;101007.94;4954602;28;20158;-68
2024/01/19 03:36:55;;;;;;;9.57;0.90;;;;;;;-3.07;60.30;101006.84;4964103;28;20118;-68
2024/01/19 03:39:23;;;;;;;9.95;0.22;;;;;;;-3.11;60.27;101005.91;4953246;28;20133;-67
2024/01/19 03:41:48;;;;;;;6.32;0.40;;;;;;;-3.21;60.84;101014.22;4954813;28;21747;-67
2024/01/19 03:44:14;;;;;;;4.32;0.10;;;;;;;-3.48;61.82;101009.44;4956528;28;20050;-67
2024/01/19 03:46:39;;;;;;;4.90;0.45;;;;;;;-3.11;60.21;101008.47;4967622;28;20041;-68
2024/01/19 03:49:07;;;;;;;2.00;0.25;;;;;;;-3.16;60.20;101012.63;4955652;28;20403;-65
2024/01/19 03:51:33;;;;;;;6.97;0.32;;;;;;;-3.23;60.27;101015.03;4952161;28;20395;-66
2024/01/19 03:53:58;;;;;;;3.22;0.20;;;;;;;-3.46;61.19;101008.63;4956909;28;20058;-66
2024/01/19 03:56:24;;;;;;;4.05;0.25;;;;;;;-3.55;61.44;101015.25;4955453;28;20105;-67
2024/01/19 03:58:50;;;;;;;1.05;0.10;;;;;;;-3.35;61.01;101010.53;4958054;28;20145;-67
2024/01/19 04:01:15;;;;;;;5.65;0.45;;;;;;;-3.36;60.64;101021.59;4993355;28;20030;-65
2024/01/19 04:03:41;;;;;;;6.75;0.32;;;;;;;-3.27;60.10;101014.13;4954496;28;20045;-66
2024/01/19 04:06:06;;;;;;;6.97;0.77;;;;;;;-3.69;61.26;101020.94;4962693;28;20327;-66
2024/01/19 04:08:32;;;;;;;0.90;0.20;;;;;;;-3.57;61.12;101009.25;4957416;28;20645;-71
2024/01/19 04:10:57;;;;;;;3.75;0.00;;;;;;;-3.81;61.87;101027.47;4957742;28;20553;-75
2024/01/19 04:13:23;;;;;;;5.00;0.10;;;;;;;-3.55;61.31;101039.09;4962277;28;20042;-75
2024/01/19 04:15:48;;;;;;;1.50;0.17;;;;;;;-3.60;61.63;101032.19;4974926;28;20719;-74
2024/01/19 04:18:14;;;;;;;4.53;0.10;;;;;;;-3.49;60.76;101034.13;4965332;28;20088;-74
2024/01/19 04:20:39;;;;;;;6.88;0.20;;;;;;;-3.50;60.98;101039.19;4955253;28;23391;-74
2024/01/19 04:23:05;;;;;;;1.20;0.10;;;;;;;-3.40;60.53;101033.47;4966406;28;20057;-74
2024/01/19 04:25:30;;;;;;;3.97;1.10;;;;;;;-3.27;60.12;101049.91;4958498;28;20478;-75
2024/01/19 04:27:56;;;;;;;5.63;0.10;;;;;;;-3.08;59.56;101046.84;4963083;28;20042;-75
2024/01/19 04:30:21;;;;;;;9.60;0.65;;;;;;;-3.06;58.95;101054.56;4961220;28;20050;-69
2024/01/19 04:32:46;;;;;;;0.52;0.15;;;;;;;-3.05;58.80;101052.06;4959058;28;20035;-69
2024/01/19 04:35:12;;;;;;;2.40;0.22;;;;;;;-2.80;58.07;101055.06;4959468;28;20147;-69
2024/01/19 04:37:37;;;;;;;2.80;0.20;;;;;;;-3.22;59.18;101055.97;4955257;28;20041;-69
2024/01/19 04:40:03;;;;;;;1.05;0.10;;;;;;;-3.16;58.50;101056.09;4960204;28;20129;-70
2024/01/19 04:42:29;;;;;;;1.15;0.10;;;;;;;-3.32;59.38;101054.03;4961454;28;20049;-71
2024/01/19 04:44:54;;;;;;;8.95;0.45;;;;;;;-3.23;58.90;101061.91;4962201;28;20043;-73
2024/01/19 04:47:20;;;;;;;3.78;0.10;;;;;;;-3.20;59.33;101072.19;4963944;28;20093;-73
2024/01/19 04:49:45;;;;;;;8.43;0.20;;;;;;;-3.21;59.04;101100.28;4971654;28;20042;-70
2024/01/19 04:52:11;;;;;;;7.20;0.50;;;;;;;-3.32;59.53;101110.28;4959648;28;20050;-70
2024/01/19 04:54:36;;;;;;;3.08;0.20;;;;;;;-2.86;58.76;101118.91;4957243;28;20046;-69
2024/01/19 04:57:02;;;;;;;0.75;0.10;;;;;;;-3.05;59.51;101118.53;4989508;28;20517;-69
2024/01/19 04:59:28;;;;;;;4.20;0.20;;;;;;;-2.61;58.20;101109.13;4958201;28;20473;-68
2024/01/19 05:01:53;;;;;;;4.47;0.73;;;;;;;-2.63;58.21;101117.63;4961650;28;20030;-69
2024/01/19 05:04:19;;;;;;;2.55;0.50;;;;;;;-2.38;57.31;101117.19;4959455;28;20413;-69
2024/01/19 05:06:44;;;;;;;5.53;0.77;;;;;;;-2.53;57.85;101123.78;4961078;28;20129;-69
2024/01/19 05:09:10;;;;;;;7.63;0.52;;;;;;;-2.36;57.63;101111.25;4958886;28;20391;-68
2024/01/19 05:11:35;;;;;;;4.93;0.22;;;;;;;-2.57;57.37;101118.59;4956305;28;20038;-67
2024/01/19 05:14:03;;;;;;;18.83;0.82;;;;;;;-2.56;57.97;101127.97;4958612;28;20628;-71
2024/01/19 05:16:28;;;;;;;5.72;0.38;;;;;;;-2.38;57.08;101125.75;4958184;28;20509;-69
2024/01/19 05:18:54;;;;;;;7.03;0.30;;;;;;;-2.35;56.99;101127.50;4953982;28;20038;-68
2024/01/19 05:21:19;;;;;;;4.43;0.30;;;;;;;-2.59;58.23;101135.59;4959844;28;20062;-68
2024/01/19 05:23:44;;;;;;;1.45;0.63;;;;;;;-2.22;56.82;101134.56;4954840;28;21517;-69
2024/01/19 05:26:10;;;;;;;6.25;0.30;;;;;;;-2.33;56.27;101136.09;4960608;28;20110;-68
2024/01/19 05:28:36;;;;;;;2.80;0.45;;;;;;;-2.41;56.25;101148.72;4957400;28;20449;-68
2024/01/19 05:31:02;;;;;;;4.28;0.10;;;;;;;-2.54;56.01;101147.63;4957000;28;20047;-67
2024/01/19 05:33:29;;;;;;;3.75;0.30;;;;;;;-2.71;56.78;101147.34;4957384;28;20575;-67
2024/01/19 05:35:55;;;;;;;3.20;0.30;;;;;;;-2.99;58.01;101157.84;4954868;28;20233;-68
2024/01/19 05:38:22;;;;;;;4.93;0.40;;;;;;;-3.16;57.87;101150.69;4960481;28;20196;-69
2024/01/19 05:40:47;;;;;;;2.38;0.20;;;;;;;-2.99;57.13;101152.72;4951179;28;20153;-67
2024/01/19 05:43:12;;;;;;;9.93;0.98;;;;;;;-3.14;57.01;101155.81;4962508;28;20062;-74
2024/01/19 05:45:38;;;;;;;5.05;0.17;;;;;;;-3.42;57.61;101162.06;4955038;28;20120;-73
2024/01/19 05:48:04;;;;;;;4.70;0.20;;;;;;;-3.32;57.26;101164.84;4962782;28;20092;-72
2024/01/19 05:50:30;;;;;;;7.63;0.32;;;;;;;-3.62;57.83;101170.13;4956379;28;20121;-70
2024/01/19 05:52:57;;;;;;;11.48;0.50;;;;;;;-3.63;57.75;101175.19;4960953;28;20524;-69
2024/01/19 05:55:22;;;;;;;6.05;0.82;;;;;;;-3.60;57.51;101180.38;4974954;28;20158;-71
2024/01/19 05:57:48;;;;;;;2.50;0.40;;;;;;;-3.55;56.86;101178.78;4945501;28;20532;-69
2024/01/19 06:00:13;;;;;;;6.25;0.52;;;;;;;-3.73;56.83;101192.00;4960152;28;20046;-69
2024/01/19 06:02:39;;;;;;;2.47;0.13;;;;;;;-3.71;57.66;101180.13;4955178;28;20043;-65
2024/01/19 06:05:05;;;;;;;4.95;0.20;;;;;;;-3.70;57.40;101187.84;4956852;28;20046;-65
2024/01/19 06:07:32;;;;;;;3.67;0.68;;;;;;;-3.78;58.30;101185.91;4954709;28;20031;-66
2024/01/19 06:09:58;;;;;;;6.00;0.40;;;;;;;-3.74;57.80;101191.13;4957097;28;20108;-66
2024/01/19 06:12:23;;;;;;;4.80;0.80;;;;;;;-3.82;57.79;101196.88;4960532;28;20034;-66
2024/01/19 06:14:49;;;;;;;8.07;0.63;;;;;;;-4.15;58.62;101202.84;4888311;28;20229;-66
2024/01/19 06:17:16;;;;;;;2.35;0.50;;;;;;;-4.24;58.38;101213.69;4873327;28;20046;-66
2024/01/19 06:19:41;;;;;;;9.40;0.43;;;;;;;-4.56;58.22;101213.69;4863207;28;20055;-65
2024/01/19 06:22:07;;;;;;;4.53;0.45;;;;;;;-4.27;58.75;101218.72;4866378;28;20116;-66
2024/01/19 06:24:36;;;;;;;3.72;1.00;;;;;;;-4.31;58.32;101227.97;4863499;28;20624;-66
2024/01/19 06:27:03;;;;;;;0.88;0.30;;;;;;;-4.39;58.80;101234.56;4888411;28;20057;-65
2024/01/19 06:29:29;;;;;;;6.88;1.70;;;;;;;-4.55;59.00;101245.16;4964247;28;20127;-66
2024/01/19 06:31:55;;;;;;;3.25;0.52;;;;;;;-4.58;59.89;101250.19;4952754;28;20042;-66
2024/01/19 06:34:21;;;;;;;5.70;1.15;;;;;;;-4.59;59.43;101246.78;4947654;28;20247;-66
2024/01/19 06:36:46;;;;;;;2.45;0.40;;;;;;;-4.93;61.24;101255.13;4962772;28;20038;-66
2024/01/19 06:39:15;;;;;;;6.30;0.40;;;;;;;-4.60;60.53;101256.94;4954748;28;20512;-65
2024/01/19 06:41:44;;;;;;;10.45;0.40;;;;;;;-4.47;60.38;101266.66;4954915;28;20041;-67
2024/01/19 06:44:11;;;;;;;10.90;1.75;;;;;;;-4.14;59.32;101276.94;4956257;28;20034;-66
2024/01/19 06:46:37;;;;;;;3.40;0.30;;;;;;;-4.36;59.98;101265.28;4949895;28;20068;-69
2024/01/19 06:49:03;;;;;;;12.90;0.65;;;;;;;-4.63;61.04;101277.25;4962151;28;20145;-68
2024/01/19 06:51:28;;;;;;;11.32;1.23;;;;;;;-4.18;60.14;101279.38;4957051;28;20030;-67
2024/01/19 06:53:57;;;;;;;2.05;0.38;;;;;;;-4.16;59.41;101277.72;4947187;28;21163;-67
2024/01/19 06:56:23;;;;;;;5.13;1.63;;;;;;;-4.30;59.78;101274.78;4953096;28;20046;-68
2024/01/19 06:58:49;;;;;;;8.35;0.68;;;;;;;-3.73;58.38;101286.50;4952721;28;20035;-66
2024/01/19 07:01:14;;;;;;;1.85;0.45;;;;;;;-4.06;59.03;101283.94;4956243;28;20714;-67
2024/01/19 07:03:40;;;;;;;2.88;0.65;;;;;;;-3.69;57.65;101285.78;4964558;28;20644;-68
2024/01/19 07:06:06;;;;;;;7.78;0.52;;;;;;;-3.78;57.49;101285.53;4950161;28;20038;-69
2024/01/19 07:08:31;;;;;;;3.33;0.52;;;;;;;-3.73;57.10;101305.25;4953906;28;20061;-70
2024/01/19 07:10:57;;;;;;;8.18;0.30;;;;;;;-3.93;56.79;101322.59;4956237;28;20065;-69
2024/01/19 07:13:23;;;;;;;8.32;0.93;;;;;;;-4.03;56.91;101330.84;4954677;28;20524;-65
2024/01/19 07:15:48;;;;;;;6.22;1.13;;;;;;;-4.03;56.74;101329.97;4948310;28;20096;-67
2024/01/19 07:18:14;;;;;;;3.53;1.20;;;;;;;-4.15;56.48;101336.47;4955293;28;20498;-66
2024/01/19 07:20:39;;;;;;;1.70;0.43;;;;;;;-4.23;57.13;101337.97;4950886;28;20514;-69
2024/01/19 07:23:05;;;;;;;7.80;0.73;;;;;;;-4.27;56.84;101336.13;4956718;28;20034;-69
2024/01/19 07:25:31;;;;;;;9.32;0.95;;;;;;;-4.65;58.76;101347.78;4955890;28;20051;-69
2024/01/19 07:27:57;;;;;;;8.23;1.00;;;;;;;-4.98;60.22;101345.91;4953043;28;20027;-70
2024/01/19 07:30:23;;;;;;;2.60;0.22;;;;;;;-4.67;59.72;101350.25;4972865;28;20049;-69
2024/01/19 07:32:48;;;;;;;3.53;0.35;;;;;;;-4.80;60.64;101354.13;4958818;28;20038;-68
2024/01/19 07:35:14;;;;;;;5.30;0.28;;;;;;;-4.68;59.75;101350.22;4960040;28;20046;-70
2024/01/19 07:37:40;;;;;;;2.67;0.40;;;;;;;-4.22;58.10;101349.03;4959101;28;20040;-68
2024/01/19 07:40:07;;;;;;;3.03;0.40;;;;;;;-4.56;58.87;101348.03;4937635;28;20307;-68
2024/01/19 07:42:32;;;;;;;9.50;0.60;;;;;;;-4.33;58.33;101349.56;4940690;28;20662;-67
2024/01/19 07:44:58;;;;;;;5.70;0.70;;;;;;;-4.41;58.32;101355.25;4892918;28;20224;-66
2024/01/19 07:47:24;;;;;;;6.55;1.00;;;;;;;-4.32;57.95;101361.53;4894036;28;20612;-70
2024/01/19 07:49:50;;;;;;;2.50;0.22;;;;;;;-4.14;57.40;101357.78;4899761;28;20049;-70
2024/01/19 07:52:16;;;;;;;3.50;0.10;;;;;;;-4.27;57.54;101366.75;4917806;28;20233;-64
2024/01/19 07:54:41;;;;;;;5.75;0.22;;;;;;;-4.17;57.14;101367.88;4899259;28;20046;-70
2024/01/19 07:57:07;;;;;;;6.25;0.63;;;;;;;-4.41;57.89;101368.91;4949689;28;20406;-69
2024/01/19 07:59:33;;;;;;;5.85;0.30;;;;;;;-4.41;58.38;101376.56;4963451;28;20046;-70
2024/01/19 08:02:00;;;;;;;4.95;0.93;;;;;;;-4.31;58.49;101376.00;4937008;28;20888;-67
2024/01/19 08:04:26;;;;;;;7.70;1.48;;;;;;;-4.20;57.63;101380.56;4869699;28;20605;-66
2024/01/19 08:06:52;;;;;;;10.88;0.77;;;;;;;-3.97;57.29;101376.97;4872341;28;20200;-73
2024/01/19 08:09:18;;;;;;;3.50;0.30;;;;;;;-4.19;57.10;101387.38;4870384;28;20146;-69
2024/01/19 08:11:44;;;;;;;9.52;1.00;;;;;;;-4.25;57.58;101384.69;4867765;28;20153;-69
2024/01/19 08:14:09;;;;;;;16.05;0.88;;;;;;;-3.87;56.76;101393.44;4873038;28;20790;-69
2024/01/19 08:16:35;;;;;;;11.00;0.65;;;;;;;-4.06;56.11;101388.63;4941118;28;20034;-68
2024/01/19 08:19:02;;;;;;;9.35;0.45;;;;;;;-4.13;57.03;101403.75;4955627;28;20284;-68
2024/01/19 08:21:28;;;;;;;3.63;0.93;;;;;;;-3.95;56.57;101395.75;4952278;28;20096;-68
2024/01/19 08:23:53;;;;;;;5.28;0.50;;;;;;;-3.76;56.65;101409.06;4949698;28;20688;-68
2024/01/19 08:26:20;;;;;;;5.05;0.30;;;;;;;-3.44;56.26;101398.84;4958780;28;20126;-69
2024/01/19 08:28:46;;;;;;;4.15;0.40;;;;;;;-3.59;55.98;101404.41;4982662;28;20515;-68
2024/01/19 08:31:12;;;;;;;6.57;0.32;;;;;;;-2.86;55.00;101406.25;4962163;28;20138;-69
2024/01/19 08:33:38;;;;;;;7.95;0.47;;;;;;;-2.74;53.61;101399.72;4951477;28;20077;-69
2024/01/19 08:36:04;;;;;;;7.20;0.65;;;;;;;-1.92;51.34;101390.41;4957261;28;20046;-71
2024/01/19 08:38:29;;;;;;;7.35;1.27;;;;;;;-1.63;51.34;101405.47;4958334;28;20038;-68
2024/01/19 08:40:55;;;;;;;9.32;0.38;;;;;;;-1.59;50.94;101409.84;4950100;28;20038;-69
2024/01/19 08:43:21;;;;;;;8.40;0.85;;;;;;;-1.06;50.27;101414.19;4958525;28;20046;-70
2024/01/19 08:45:46;;;;;;;8.30;1.63;;;;;;;-1.57;51.48;101417.56;4954096;28;20050;-67
2024/01/19 08:48:12;;;;;;;3.38;0.40;;;;;;;-1.24;50.83;101419.84;4954197;28;20042;-66
2024/01/19 08:50:38;;;;;;;4.47;0.50;;;;;;;-2.23;53.13;101420.50;4952011;28;20046;-69
2024/01/19 08:53:04;;;;;;;13.65;1.08;;;;;;;-2.13;53.62;101415.59;4951826;28;20390;-67
2024/01/19 08:55:30;;;;;;;3.17;0.90;;;;;;;-2.59;54.64;101435.03;4957559;28;20858;-67
2024/01/19 08:57:55;;;;;;;5.10;0.50;;;;;;;-2.58;55.24;101441.88;4953586;28;20053;-67
2024/01/19 09:00:21;;;;;;;9.73;1.65;;;;;;;-2.83;56.48;101443.84;4949581;28;20045;-67
2024/01/19 09:02:48;;;;;;;4.45;0.57;;;;;;;-3.19;58.77;101446.34;4961169;28;20041;-69
2024/01/19 09:05:14;;;;;;;3.55;0.60;;;;;;;-2.84;57.96;101444.69;4957849;28;20074;-67
2024/01/19 09:07:40;;;;;;;5.50;0.40;;;;;;;-2.67;57.56;101443.41;4975408;28;20606;-67
2024/01/19 09:10:07;;;;;;;6.70;0.60;;;;;;;-2.33;57.09;101427.97;4955492;28;20126;-67
2024/01/19 09:12:32;;;;;;;5.15;0.20;;;;;;;-2.79;57.88;101435.41;4962494;28;20038;-69
2024/01/19 09:14:58;;;;;;;5.57;0.30;;;;;;;-2.74;57.85;101436.38;4952440;28;20061;-67
2024/01/19 09:17:23;;;;;;;6.68;0.65;;;;;;;-2.32;58.12;101443.34;4918073;28;20230;-67
2024/01/19 09:19:49;;;;;;;5.40;0.90;;;;;;;-1.43;55.70;101439.19;4912133;28;20923;-67
2024/01/19 09:22:14;;;;;;;8.30;0.80;;;;;;;-0.54;54.47;101448.44;4925302;28;20117;-69
2024/01/19 09:24:40;;;;;;;3.33;0.63;;;;;;;-0.66;51.75;101455.94;4913283;28;20047;-69
2024/01/19 09:27:05;;;;;;;6.30;0.38;;;;;;;0.50;49.77;101464.34;4914478;28;20042;-69
2024/01/19 09:29:31;;;;;;;7.78;0.52;;;;;;;0.63;49.52;101455.91;4963881;28;20050;-69
2024/01/19 09:31:56;;;;;;;6.68;0.77;;;;;;;-0.57;51.22;101466.38;4954146;28;20694;-68
2024/01/19 09:34:22;;;;;;;11.00;1.33;;;;;;;-0.36;50.89;101455.53;4977877;28;20382;-68
2024/01/19 09:36:48;;;;;;;16.42;1.45;;;;;;;-0.80;52.78;101456.56;4969901;28;21564;-68
2024/01/19 09:39:14;;;;;;;5.88;0.40;;;;;;;-0.37;51.95;101451.22;4964998;28;20165;-68
2024/01/19 09:41:46;;;;;;;8.35;1.27;;;;;;;-0.92;53.22;101464.06;4952590;28;20101;-68
2024/01/19 09:44:12;;;;;;;6.25;0.73;;;;;;;-1.28;54.21;101471.97;4951953;28;20043;-68
2024/01/19 09:46:47;;;;;;;9.13;0.52;;;;;;;-1.07;54.57;101466.34;4960173;28;20412;-67
2024/01/19 09:49:28;;;;;;;11.30;2.25;;;;;;;-1.41;55.22;101466.59;4953417;28;20046;-68
2024/01/19 09:52:02;;;;;;;4.72;0.80;;;;;;;-0.92;54.17;101461.50;4948245;28;20077;-68
2024/01/19 09:54:30;;;;;;;3.72;0.32;;;;;;;-1.70;55.29;101452.34;4960319;28;20649;-68
2024/01/19 09:56:56;;;;;;;10.02;1.05;;;;;;;-1.22;54.41;101461.78;4946585;28;20096;-68
2024/01/19 09:59:23;;;;;;;3.65;0.47;;;;;;;-1.80;55.93;101462.41;4948820;28;20057;-68
2024/01/19 10:01:53;;;;;;;8.27;1.85;;;;;;;-1.52;55.09;101473.19;4956064;28;20038;-69
2024/01/19 10:04:20;;;;;;;2.17;0.30;;;;;;;-2.24;57.03;101471.69;4957592;28;20046;-69
2024/01/19 10:06:46;;;;;;;2.85;0.65;;;;;;;-2.01;57.17;101461.94;4958666;28;20030;-68
2024/01/19 10:09:12;;;;;;;7.65;0.90;;;;;;;-1.75;55.95;101465.06;4954293;28;20050;-68
2024/01/19 10:11:40;;;;;;;5.90;0.60;;;;;;;-1.57;54.92;101473.97;4960772;28;20038;-68
2024/01/19 10:14:06;;;;;;;3.03;0.77;;;;;;;-1.33;54.69;101478.69;4954398;28;20027;-68
2024/01/19 10:16:33;;;;;;;4.00;0.93;;;;;;;-1.35;54.49;101486.38;4961263;28;21585;-68
2024/01/19 10:19:02;;;;;;;2.55;0.40;;;;;;;-1.34;53.84;101493.22;4949300;28;20096;-68
2024/01/19 10:21:28;;;;;;;4.63;0.40;;;;;;;-1.64;54.79;101493.47;4988616;28;20035;-68
2024/01/19 10:24:11;;;;;;;5.70;0.32;;;;;;;-1.28;53.28;101500.16;4887726;28;20263;-67
2024/01/19 10:26:38;;;;;;;6.13;1.02;;;;;;;-1.16;53.43;101513.22;4907221;28;20758;-69
2024/01/19 10:29:14;;;;;;;5.90;0.68;;;;;;;-0.99;52.64;101506.72;4893704;28;20214;-69
2024/01/19 10:31:42;;;;;;;6.03;1.08;;;;;;;-1.61;53.83;101511.47;4885623;28;20035;-70
2024/01/19 10:34:22;;;;;;;7.50;0.38;;;;;;;-1.47;53.61;101507.47;4896508;28;21331;-70
2024/01/19 10:36:48;;;;;;;7.50;0.63;;;;;;;-1.18;52.82;101497.78;4890304;28;20489;-69
2024/01/19 10:39:18;;;;;;;5.70;0.30;;;;;;;-0.52;51.15;101510.94;4881495;28;20054;-69
2024/01/19 10:41:44;;;;;;;3.83;0.77;;;;;;;-0.87;51.59;101506.06;4885036;28;20201;-69
2024/01/19 10:44:11;;;;;;;8.40;0.98;;;;;;;-0.61;50.95;101503.97;4872404;28;20297;-69
2024/01/19 10:46:37;;;;;;;3.08;0.77;;;;;;;-0.38;50.24;101503.47;4873251;28;20361;-68
2024/01/19 10:49:04;;;;;;;7.75;0.52;;;;;;;-0.31;49.88;101507.84;4863492;28;20449;-67
2024/01/19 10:51:32;;;;;;;3.33;0.57;;;;;;;-0.02;49.30;101509.97;4868439;28;20472;-67
2024/01/19 10:54:02;;;;;;;11.05;0.85;;;;;;;-0.47;50.15;101506.75;4875132;28;22215;-67
2024/01/19 10:56:28;;;;;;;4.63;0.65;;;;;;;-0.60;50.61;101508.25;4940711;28;20030;-67
2024/01/19 10:58:53;;;;;;;13.50;0.85;;;;;;;-0.50;50.85;101514.41;4954790;28;20418;-67
2024/01/19 11:01:19;;;;;;;5.75;0.35;;;;;;;-0.11;50.50;101523.56;4958989;28;20026;-67
2024/01/19 11:03:44;;;;;;;7.30;0.68;;;;;;;0.28;48.92;101519.84;4959536;28;20108;-67
2024/01/19 11:06:11;;;;;;;6.97;0.40;;;;;;;-0.65;50.40;101527.00;4954729;28;20046;-67
2024/01/19 11:08:37;;;;;;;6.22;0.70;;;;;;;-0.36;49.96;101530.03;4956587;28;20077;-67
2024/01/19 11:11:06;;;;;;;1.85;0.32;;;;;;;-0.19;50.23;101531.16;4956091;28;20144;-68
2024/01/19 11:13:38;;;;;;;6.20;0.30;;;;;;;-0.26;50.35;101525.91;4955908;28;20065;-67
2024/01/19 11:16:12;;;;;;;10.27;1.13;;;;;;;0.83;47.92;101529.91;4954739;28;20641;-67
2024/01/19 11:18:38;;;;;;;10.13;1.10;;;;;;;0.19;48.75;101528.28;4954829;28;20031;-68